createdAt,value
2018-02-14T04:32:44.311Z,22.02
2018-02-14T04:35:18.116Z,24.27
2018-02-14T04:37:54.055Z,23.83
2018-02-14T04:40:27.868Z,23.08
2018-02-14T04:43:01.726Z,22.45
2018-02-14T04:45:35.572Z,19.33
2018-02-14T04:48:10.420Z,20.58
2018-02-14T04:50:45.740Z,20.88
2018-02-14T04:53:21.640Z,22.17
2018-02-14T04:55:55.310Z,27.70
2018-02-14T04:58:35.823Z,26.35
2018-02-14T05:01:09.684Z,24.75
2018-02-14T05:03:43.523Z,23.83
2018-02-14T05:06:17.320Z,28.73
2018-02-14T05:08:51.790Z,28.08
2018-02-14T05:11:26.436Z,22.87
2018-02-14T05:14:00.233Z,27.00
2018-02-14T05:16:35.127Z,23.90
2018-02-14T05:19:09.692Z,29.58
2018-02-14T05:21:44.680Z,29.60
2018-02-14T05:24:18.620Z,26.48
2018-02-14T05:26:53.209Z,27.95
2018-02-14T05:29:26.918Z,25.60
2018-02-14T05:32:00.723Z,22.55
2018-02-14T05:34:34.460Z,27.95
2018-02-14T05:37:08.291Z,20.95
2018-02-14T05:39:42.152Z,22.13
2018-02-14T05:42:15.947Z,23.35
2018-02-14T05:44:49.712Z,27.45
2018-02-14T05:47:23.520Z,22.40
2018-02-14T05:49:57.367Z,22.48
2018-02-14T05:52:31.288Z,21.37
2018-02-14T05:55:06.255Z,27.42
2018-02-14T05:57:39.844Z,27.33
2018-02-14T06:00:14.423Z,28.38
2018-02-14T06:02:49.235Z,30.02
2018-02-14T06:05:23.100Z,31.05
2018-02-14T06:07:56.840Z,24.55
2018-02-14T06:10:30.844Z,23.10
2018-02-14T06:13:04.944Z,23.10
2018-02-14T06:15:40.450Z,31.50
2018-02-14T06:18:14.139Z,26.60
2018-02-14T06:20:47.952Z,26.12
2018-02-14T06:23:27.794Z,28.85
2018-02-14T06:26:01.603Z,28.12
2018-02-14T06:28:35.998Z,28.42
2018-02-14T06:31:09.876Z,34.47
2018-02-14T06:33:44.008Z,32.95
2018-02-14T06:36:17.836Z,33.67
2018-02-14T06:38:51.644Z,35.20
2018-02-14T06:41:25.423Z,37.00
2018-02-14T06:43:59.263Z,33.35
2018-02-14T06:46:33.028Z,34.10
2018-02-14T06:49:06.797Z,33.30
2018-02-14T06:51:40.737Z,33.55
2018-02-14T06:54:15.298Z,32.13
2018-02-14T06:56:49.126Z,37.83
2018-02-14T06:59:23.132Z,36.10
2018-02-14T07:01:57.607Z,33.45
2018-02-14T07:04:32.173Z,32.83
2018-02-14T07:07:05.959Z,32.95
2018-02-14T07:09:41.882Z,30.10
2018-02-14T07:12:15.635Z,32.97
2018-02-14T07:14:49.677Z,31.60
2018-02-14T07:17:23.432Z,39.60
2018-02-14T07:19:57.221Z,31.33
2018-02-14T07:22:31.753Z,33.03
2018-02-14T07:25:05.631Z,38.47
2018-02-14T07:27:41.504Z,44.00
2018-02-14T07:30:15.348Z,37.83
2018-02-14T07:32:49.163Z,32.05
2018-02-14T07:35:23.971Z,37.45
2018-02-14T07:37:57.817Z,32.28
2018-02-14T07:40:31.583Z,31.75
2018-02-14T07:43:05.449Z,39.50
2018-02-14T07:45:39.200Z,31.48
2018-02-14T07:48:13.676Z,32.28
2018-02-14T07:50:48.303Z,31.83
2018-02-14T07:53:22.441Z,33.03
2018-02-14T07:55:56.290Z,32.08
2018-02-14T07:58:30.544Z,30.52
2018-02-14T08:01:04.353Z,32.58
2018-02-14T08:03:38.160Z,27.75
2018-02-14T08:06:12.092Z,28.00
2018-02-14T08:08:45.912Z,27.62
2018-02-14T08:11:19.846Z,26.00
2018-02-14T08:13:53.682Z,29.27
2018-02-14T08:16:27.455Z,27.60
2018-02-14T08:19:01.300Z,29.08
2018-02-14T08:21:35.084Z,29.35
2018-02-14T08:24:08.844Z,24.37
2018-02-14T08:26:42.656Z,27.77
2018-02-14T08:29:16.453Z,27.48
2018-02-14T08:31:50.249Z,26.10
2018-02-14T08:34:24.778Z,31.05
2018-02-14T08:36:59.402Z,25.58
2018-02-14T08:39:33.311Z,26.48
2018-02-14T08:42:07.159Z,28.38
2018-02-14T08:44:41.914Z,28.58
2018-02-14T08:47:15.663Z,25.77
2018-02-14T08:49:51.499Z,23.75
2018-02-14T08:52:27.752Z,26.85
2018-02-14T08:55:01.363Z,26.23
2018-02-14T08:57:36.271Z,30.70
2018-02-14T09:00:11.029Z,24.80
2018-02-14T09:02:44.739Z,30.85
2018-02-14T09:05:19.547Z,31.75
2018-02-14T09:07:53.390Z,28.50
2018-02-14T09:10:27.159Z,27.48
2018-02-14T09:13:00.910Z,24.98
2018-02-14T09:15:34.887Z,30.80
2018-02-14T09:18:09.849Z,27.33
2018-02-14T09:20:43.538Z,25.25
2018-02-14T09:23:18.132Z,27.77
2018-02-14T09:25:52.015Z,29.85
2018-02-14T09:28:25.823Z,23.90
2018-02-14T09:31:01.268Z,27.42
2018-02-14T09:33:36.952Z,27.95
2018-02-14T09:36:10.755Z,35.38
2018-02-14T09:38:44.456Z,29.77
2018-02-14T09:41:18.981Z,29.85
2018-02-14T09:43:53.493Z,25.33
2018-02-14T09:46:27.289Z,27.13
2018-02-14T09:49:01.980Z,26.37
2018-02-14T09:51:35.793Z,29.08
2018-02-14T09:54:09.543Z,26.95
2018-02-14T09:56:45.190Z,27.45
2018-02-14T09:59:18.912Z,30.70
2018-02-14T10:01:52.703Z,32.88
2018-02-14T10:04:26.547Z,32.28
2018-02-14T10:07:01.142Z,31.08
2018-02-14T10:09:35.655Z,27.90
2018-02-14T10:12:09.496Z,27.10
2018-02-14T10:14:44.517Z,29.67
2018-02-14T10:17:18.269Z,26.87
2018-02-14T10:19:52.037Z,29.12
2018-02-14T10:22:25.771Z,32.03
2018-02-14T10:24:59.508Z,25.67
2018-02-14T10:27:34.115Z,26.85
2018-02-14T10:30:08.780Z,27.70
2018-02-14T10:32:42.718Z,28.48
2018-02-14T10:35:16.583Z,25.45
2018-02-14T10:37:51.013Z,25.50
2018-02-14T10:40:24.919Z,24.73
2018-02-14T10:43:04.028Z,32.15
2018-02-14T10:45:38.415Z,29.98
2018-02-14T10:48:12.165Z,25.88
2018-02-14T10:50:47.515Z,25.62
2018-02-14T10:53:21.731Z,30.62
2018-02-14T10:55:55.442Z,26.55
2018-02-14T10:58:30.311Z,22.60
2018-02-14T11:01:04.096Z,25.23
2018-02-14T11:03:41.423Z,25.77
2018-02-14T11:06:15.269Z,28.87
2018-02-14T11:08:49.681Z,22.92
2018-02-14T11:11:24.193Z,23.42
2018-02-14T11:13:58.116Z,24.67
2018-02-14T11:16:31.845Z,20.73
2018-02-14T11:19:05.607Z,21.85
2018-02-14T11:21:39.440Z,21.98
2018-02-14T11:24:14.477Z,22.65
2018-02-14T11:26:48.887Z,20.95
2018-02-14T11:29:23.593Z,22.05
2018-02-14T11:31:58.120Z,19.58
2018-02-14T11:34:33.254Z,20.27
2018-02-14T11:37:06.585Z,21.27
2018-02-14T11:39:40.364Z,25.20
2018-02-14T11:42:14.906Z,21.67
2018-02-14T11:44:49.753Z,18.95
2018-02-14T11:47:23.637Z,20.60
2018-02-14T11:49:57.439Z,23.23
2018-02-14T11:52:31.200Z,23.50
2018-02-14T11:55:05.776Z,24.30
2018-02-14T11:57:40.164Z,19.58
2018-02-14T12:00:15.143Z,23.52
2018-02-14T12:02:48.975Z,21.87
2018-02-14T12:05:23.017Z,27.85
2018-02-14T12:07:56.951Z,25.05
2018-02-14T12:10:30.803Z,22.98
2018-02-14T12:13:04.636Z,20.27
2018-02-14T12:15:38.491Z,23.58
2018-02-14T12:18:12.380Z,23.48
2018-02-14T12:20:46.947Z,19.65
2018-02-14T12:23:20.728Z,22.80
2018-02-14T12:25:58.086Z,24.17
2018-02-14T12:28:32.047Z,22.08
2018-02-14T12:31:05.815Z,22.10
2018-02-14T12:33:40.424Z,22.50
2018-02-14T12:36:14.207Z,20.50
2018-02-14T12:38:48.761Z,20.40
2018-02-14T12:41:22.598Z,23.23
2018-02-14T12:43:57.140Z,19.48
2018-02-14T12:46:31.727Z,26.37
2018-02-14T12:49:05.785Z,26.80
2018-02-14T12:51:40.529Z,20.92
2018-02-14T12:54:14.972Z,22.58
2018-02-14T12:56:48.696Z,17.75
2018-02-14T12:59:23.199Z,20.65
2018-02-14T13:01:57.042Z,20.20
2018-02-14T13:04:31.658Z,18.83
2018-02-14T13:07:05.347Z,18.12
2018-02-14T13:09:39.483Z,22.27
2018-02-14T13:12:13.321Z,17.65
2018-02-14T13:14:47.861Z,20.25
2018-02-14T13:17:21.636Z,19.15
2018-02-14T13:19:55.388Z,18.35
2018-02-14T13:22:29.235Z,17.80
2018-02-14T13:25:03.084Z,17.40
2018-02-14T13:27:36.831Z,18.60
2018-02-14T13:30:11.365Z,18.83
2018-02-14T13:32:46.060Z,19.85
2018-02-14T13:35:20.566Z,21.00
2018-02-14T13:37:54.377Z,20.27
2018-02-14T13:40:28.077Z,19.15
2018-02-14T13:43:02.124Z,19.12
2018-02-14T13:45:36.737Z,20.60
2018-02-14T13:48:10.607Z,19.95
2018-02-14T13:50:44.447Z,16.67
2018-02-14T13:53:18.187Z,17.60
2018-02-14T13:55:52.835Z,15.20
2018-02-14T13:58:26.691Z,17.42
2018-02-14T14:01:00.530Z,21.20
2018-02-14T14:03:34.265Z,16.37
2018-02-14T14:06:08.041Z,18.02
2018-02-14T14:08:41.787Z,21.35
2018-02-14T14:11:16.872Z,19.20
2018-02-14T14:13:50.697Z,16.00
2018-02-14T14:16:25.277Z,18.85
2018-02-14T14:18:59.119Z,20.08
2018-02-14T14:21:32.910Z,15.68
2018-02-14T14:24:06.635Z,17.23
2018-02-14T14:26:41.221Z,23.95
2018-02-14T14:29:15.059Z,18.67
2018-02-14T14:31:50.657Z,20.00
2018-02-14T14:34:24.464Z,18.40
2018-02-14T14:36:58.349Z,18.23
2018-02-14T14:39:32.092Z,27.10
2018-02-14T14:42:05.933Z,20.05
2018-02-14T14:44:39.616Z,15.63
2018-02-14T14:47:13.440Z,14.07
2018-02-14T14:49:47.248Z,11.60
2018-02-14T14:52:21.821Z,21.65
2018-02-14T14:54:56.497Z,21.80
2018-02-14T14:57:34.299Z,24.83
2018-02-14T15:00:11.652Z,17.00
2018-02-14T15:02:45.517Z,16.30
2018-02-14T15:05:19.358Z,22.77
2018-02-14T15:07:53.860Z,20.77
2018-02-14T15:10:28.407Z,14.05
2018-02-14T15:13:02.156Z,13.62
2018-02-14T15:15:35.928Z,12.85
2018-02-14T15:18:12.276Z,11.82
2018-02-14T15:20:47.644Z,12.00
2018-02-14T15:23:21.483Z,13.82
2018-02-14T15:25:55.272Z,15.40
2018-02-14T15:28:29.856Z,10.55
2018-02-14T15:31:04.395Z,13.82
2018-02-14T15:33:38.961Z,14.95
2018-02-14T15:36:13.852Z,16.87
2018-02-14T15:38:48.180Z,11.45
2018-02-14T15:41:22.404Z,16.02
2018-02-14T15:43:56.101Z,12.75
2018-02-14T15:46:29.944Z,12.40
2018-02-14T15:49:03.828Z,12.85
2018-02-14T15:51:37.561Z,13.02
2018-02-14T15:54:11.441Z,12.30
2018-02-14T15:56:45.261Z,16.17
2018-02-14T15:59:18.968Z,10.85
2018-02-14T16:01:52.776Z,13.52
2018-02-14T16:04:27.463Z,14.63
2018-02-14T16:07:01.197Z,11.80
2018-02-14T16:09:35.755Z,13.02
2018-02-14T16:12:09.448Z,12.93
2018-02-14T16:14:44.192Z,12.98
2018-02-14T16:17:18.050Z,12.55
2018-02-14T16:19:51.755Z,10.60
2018-02-14T16:22:25.592Z,13.62
2018-02-14T16:24:59.393Z,15.40
2018-02-14T16:27:33.207Z,13.55
2018-02-14T16:30:07.002Z,10.88
2018-02-14T16:32:41.579Z,20.05
2018-02-14T16:35:16.195Z,13.77
2018-02-14T16:37:49.957Z,13.88
2018-02-14T16:40:23.649Z,12.20
2018-02-14T16:42:57.463Z,14.32
2018-02-14T16:45:31.385Z,21.40
2018-02-14T16:48:05.565Z,13.45
2018-02-14T16:50:40.278Z,11.25
2018-02-14T16:53:14.981Z,13.50
2018-02-14T16:55:49.811Z,12.20
2018-02-14T16:58:23.671Z,12.98
2018-02-14T17:00:57.395Z,17.27
2018-02-14T17:03:31.131Z,15.48
2018-02-14T17:06:04.970Z,15.43
2018-02-14T17:08:38.900Z,16.25
2018-02-14T17:11:12.688Z,14.63
2018-02-14T17:13:46.472Z,17.85
2018-02-14T17:16:20.353Z,15.40
2018-02-14T17:18:54.084Z,15.70
2018-02-14T17:21:27.903Z,13.00
2018-02-14T17:24:01.754Z,15.68
2018-02-14T17:26:35.509Z,14.77
2018-02-14T17:29:10.316Z,15.57
2018-02-14T17:31:45.338Z,15.38
2018-02-14T17:34:19.223Z,18.67
2018-02-14T17:36:52.891Z,16.98
2018-02-14T17:39:27.915Z,17.00
2018-02-14T17:42:01.578Z,18.80
2018-02-14T17:44:35.510Z,17.77
2018-02-14T17:47:09.246Z,17.80
2018-02-14T17:49:43.125Z,16.55
2018-02-14T17:52:16.845Z,17.17
2018-02-14T17:54:51.465Z,14.07
2018-02-14T17:57:25.252Z,19.42
2018-02-14T17:59:59.111Z,17.30
2018-02-14T18:02:33.769Z,19.75
2018-02-14T18:05:09.064Z,17.60
2018-02-14T18:07:43.639Z,17.20
2018-02-14T18:10:18.199Z,32.05
2018-02-14T18:12:52.188Z,20.20
2018-02-14T18:15:26.135Z,18.33
2018-02-14T18:18:00.753Z,15.32
2018-02-14T18:20:34.564Z,15.07
2018-02-14T18:23:09.173Z,14.85
2018-02-14T18:25:43.000Z,19.37
2018-02-14T18:28:16.756Z,16.98
2018-02-14T18:30:50.609Z,17.55
2018-02-14T18:33:24.712Z,17.95
2018-02-14T18:35:58.561Z,17.15
2018-02-14T18:38:32.344Z,16.70
2018-02-14T18:41:06.830Z,17.40
2018-02-14T18:43:41.481Z,16.90
2018-02-14T18:46:15.268Z,19.27
2018-02-14T18:48:49.901Z,21.45
2018-02-14T18:51:25.042Z,17.30
2018-02-14T18:53:58.936Z,24.42
2018-02-14T18:56:33.407Z,22.58
2018-02-14T18:59:07.264Z,30.27
2018-02-14T19:01:41.892Z,24.87
2018-02-14T19:04:15.612Z,21.42
2018-02-14T19:06:49.485Z,28.98
2018-02-14T19:09:23.224Z,19.08
2018-02-14T19:11:57.720Z,24.95
2018-02-14T19:14:31.745Z,24.65
2018-02-14T19:17:05.606Z,20.20
2018-02-14T19:19:39.432Z,27.13
2018-02-14T19:22:13.355Z,18.60
2018-02-14T19:24:47.076Z,26.05
2018-02-14T19:27:20.774Z,20.73
2018-02-14T19:29:54.590Z,27.20
2018-02-14T19:32:28.408Z,18.58
2018-02-14T19:35:02.897Z,18.40
2018-02-14T19:37:37.049Z,14.43
2018-02-14T19:40:10.963Z,13.02
2018-02-14T19:42:45.472Z,16.17
2018-02-14T19:45:19.124Z,16.30
2018-02-14T19:47:53.687Z,15.57
2018-02-14T19:50:27.447Z,14.02
2018-02-14T19:53:01.211Z,15.73
2018-02-14T19:55:35.771Z,16.73
2018-02-14T19:58:10.239Z,16.12
2018-02-14T20:00:44.056Z,15.00
2018-02-14T20:03:18.652Z,18.02
2018-02-14T20:05:52.464Z,16.85
2018-02-14T20:08:26.248Z,16.83
2018-02-14T20:10:59.997Z,17.37
2018-02-14T20:13:33.962Z,15.63
2018-02-14T20:16:07.709Z,17.10
2018-02-14T20:18:41.435Z,16.90
2018-02-14T20:21:16.005Z,13.13
2018-02-14T20:23:50.151Z,15.15
2018-02-14T20:26:24.632Z,16.92
2018-02-14T20:28:58.503Z,13.38
2018-02-14T20:31:32.260Z,17.12
2018-02-14T20:34:06.788Z,15.30
2018-02-14T20:36:40.636Z,15.20
2018-02-14T20:39:14.628Z,16.40
2018-02-14T20:41:48.286Z,16.80
2018-02-14T20:44:22.119Z,20.42
2018-02-14T20:46:55.849Z,12.80
2018-02-14T20:49:30.640Z,17.02
2018-02-14T20:52:05.247Z,17.37
2018-02-14T20:54:39.709Z,14.05
2018-02-14T20:57:13.388Z,18.85
2018-02-14T20:59:48.049Z,20.98
2018-02-14T21:02:21.769Z,15.80
2018-02-14T21:04:55.855Z,17.42
2018-02-14T21:07:29.546Z,17.50
2018-02-14T21:10:04.191Z,14.82
2018-02-14T21:12:38.079Z,15.10
2018-02-14T21:15:11.820Z,19.08
2018-02-14T21:17:45.601Z,12.45
2018-02-14T21:20:20.211Z,18.37
2018-02-14T21:22:53.989Z,16.27
2018-02-14T21:25:27.847Z,11.95
2018-02-14T21:28:01.692Z,15.18
2018-02-14T21:30:35.463Z,16.58
2018-02-14T21:33:09.213Z,13.25
2018-02-14T21:35:43.368Z,14.15
2018-02-14T21:38:17.766Z,14.27
2018-02-14T21:40:51.615Z,15.02
2018-02-14T21:43:25.436Z,16.75
2018-02-14T21:45:59.225Z,15.07
2018-02-14T21:48:33.815Z,14.25
2018-02-14T21:51:08.763Z,13.38
2018-02-14T21:53:43.370Z,14.65
2018-02-14T21:56:18.019Z,15.40
2018-02-14T21:58:51.727Z,11.55
